Aviation Digital Data Service (ADDS)

Output produced by METARs form (0238 UTC 18 June 2019)
found at http://www.aviationweather.gov/metar/data/
 
METAR text: DRRT 171800Z 24010KT 9999 FEW040 39/14 Q1011
Conditions at: DRRT (TAHOUA , NE) observed 1800 UTC 17 June 2019
Temperature: 39.0°C (102°F)
Dewpoint: 14.0°C (57°F) [RH = 23%]
Pressure (altimeter): 29.85 inches Hg (1011.0 mb)
Winds: from the WSW (240 degrees) at 12 MPH (10 knots; 5.1 m/s)
Visibility: 6 or more miles (10+ km)
Ceiling: at least 12,000 feet AGL
Clouds: few clouds at 4000 feet AGL
Weather: no significant weather observed at this time

METAR text: DRRT 171700Z 20004KT 9999 FEW040 39/14 Q1011
Conditions at: DRRT (TAHOUA , NE) observed 1700 UTC 17 June 2019
Temperature: 39.0°C (102°F)
Dewpoint: 14.0°C (57°F) [RH = 23%]
Pressure (altimeter): 29.85 inches Hg (1011.0 mb)
Winds: from the SSW (200 degrees) at 5 MPH (4 knots; 2.1 m/s)
Visibility: 6 or more miles (10+ km)
Ceiling: at least 12,000 feet AGL
Clouds: few clouds at 4000 feet AGL
Weather: no significant weather observed at this time

METAR text: DRRT 171600Z 20006KT 9999 FEW040 40/15 Q1010
Conditions at: DRRT (TAHOUA , NE) observed 1600 UTC 17 June 2019
Temperature: 40.0°C (104°F)
Dewpoint: 15.0°C (59°F) [RH = 23%]
Pressure (altimeter): 29.82 inches Hg (1010.0 mb)
Winds: from the SSW (200 degrees) at 7 MPH (6 knots; 3.1 m/s)
Visibility: 6 or more miles (10+ km)
Ceiling: at least 12,000 feet AGL
Clouds: few clouds at 4000 feet AGL
Weather: no significant weather observed at this time

METAR text: DRRT 171500Z 22006KT 9999 FEW040 40/14 Q1011
Conditions at: DRRT (TAHOUA , NE) observed 1500 UTC 17 June 2019
Temperature: 40.0°C (104°F)
Dewpoint: 14.0°C (57°F) [RH = 22%]
Pressure (altimeter): 29.85 inches Hg (1011.0 mb)
Winds: from the SW (220 degrees) at 7 MPH (6 knots; 3.1 m/s)
Visibility: 6 or more miles (10+ km)
Ceiling: at least 12,000 feet AGL
Clouds: few clouds at 4000 feet AGL
Weather: no significant weather observed at this time

METAR text: DRRT 171400Z 22008KT CAVOK 39/17 Q1012
Conditions at: DRRT (TAHOUA , NE) observed 1400 UTC 17 June 2019
Temperature: 39.0°C (102°F)
Dewpoint: 17.0°C (63°F) [RH = 28%]
Pressure (altimeter): 29.88 inches Hg (1012.0 mb)
Winds: from the SW (220 degrees) at 9 MPH (8 knots; 4.1 m/s)
Visibility: 6 or more miles (10+ km)
Ceiling: ceiling and visibility are OK
Clouds: unknown
Weather: no significant weather observed at this time

METAR text: DRRT 171300Z 22012KT CAVOK 38/18 Q1012
Conditions at: DRRT (TAHOUA , NE) observed 1300 UTC 17 June 2019
Temperature: 38.0°C (100°F)
Dewpoint: 18.0°C (64°F) [RH = 31%]
Pressure (altimeter): 29.88 inches Hg (1012.0 mb)
Winds: from the SW (220 degrees) at 14 MPH (12 knots; 6.2 m/s)
Visibility: 6 or more miles (10+ km)
Ceiling: ceiling and visibility are OK
Clouds: unknown
Weather: no significant weather observed at this time

METAR text: DRRT 171200Z 26012KT CAVOK 37/18 Q1013
Conditions at: DRRT (TAHOUA , NE) observed 1200 UTC 17 June 2019
Temperature: 37.0°C (99°F)
Dewpoint: 18.0°C (64°F) [RH = 33%]
Pressure (altimeter): 29.91 inches Hg (1013.0 mb)
Winds: from the W (260 degrees) at 14 MPH (12 knots; 6.2 m/s)
Visibility: 6 or more miles (10+ km)
Ceiling: ceiling and visibility are OK
Clouds: unknown
Weather: no significant weather observed at this time

METAR text: DRRT 171100Z 26012KT CAVOK 36/18 Q1014
Conditions at: DRRT (TAHOUA , NE) observed 1100 UTC 17 June 2019
Temperature: 36.0°C (97°F)
Dewpoint: 18.0°C (64°F) [RH = 35%]
Pressure (altimeter): 29.94 inches Hg (1014.0 mb)
Winds: from the W (260 degrees) at 14 MPH (12 knots; 6.2 m/s)
Visibility: 6 or more miles (10+ km)
Ceiling: ceiling and visibility are OK
Clouds: unknown
Weather: no significant weather observed at this time

METAR text: DRRT 171000Z 26014KT CAVOK 35/19 Q1014
Conditions at: DRRT (TAHOUA , NE) observed 1000 UTC 17 June 2019
Temperature: 35.0°C (95°F)
Dewpoint: 19.0°C (66°F) [RH = 39%]
Pressure (altimeter): 29.94 inches Hg (1014.0 mb)
Winds: from the W (260 degrees) at 16 MPH (14 knots; 7.2 m/s)
Visibility: 6 or more miles (10+ km)
Ceiling: ceiling and visibility are OK
Clouds: unknown
Weather: no significant weather observed at this time

METAR text: DRRT 170900Z 26012KT CAVOK 34/20 Q1014
Conditions at: DRRT (TAHOUA , NE) observed 0900 UTC 17 June 2019
Temperature: 34.0°C (93°F)
Dewpoint: 20.0°C (68°F) [RH = 44%]
Pressure (altimeter): 29.94 inches Hg (1014.0 mb)
Winds: from the W (260 degrees) at 14 MPH (12 knots; 6.2 m/s)
Visibility: 6 or more miles (10+ km)
Ceiling: ceiling and visibility are OK
Clouds: unknown
Weather: no significant weather observed at this time

METAR text: DRRT 170800Z 22008KT CAVOK 31/20 Q1014
Conditions at: DRRT (TAHOUA , NE) observed 0800 UTC 17 June 2019
Temperature: 31.0°C (88°F)
Dewpoint: 20.0°C (68°F) [RH = 52%]
Pressure (altimeter): 29.94 inches Hg (1014.0 mb)
Winds: from the SW (220 degrees) at 9 MPH (8 knots; 4.1 m/s)
Visibility: 6 or more miles (10+ km)
Ceiling: ceiling and visibility are OK
Clouds: unknown
Weather: no significant weather observed at this time

METAR text: DRRT 170700Z 24008KT CAVOK 30/20 Q1014
Conditions at: DRRT (TAHOUA , NE) observed 0700 UTC 17 June 2019
Temperature: 30.0°C (86°F)
Dewpoint: 20.0°C (68°F) [RH = 55%]
Pressure (altimeter): 29.94 inches Hg (1014.0 mb)
Winds: from the WSW (240 degrees) at 9 MPH (8 knots; 4.1 m/s)
Visibility: 6 or more miles (10+ km)
Ceiling: ceiling and visibility are OK
Clouds: unknown
Weather: no significant weather observed at this time

METAR text: DRRT 170600Z 22006KT CAVOK 28/23 Q1013
Conditions at: DRRT (TAHOUA , NE) observed 0600 UTC 17 June 2019
Temperature: 28.0°C (82°F)
Dewpoint: 23.0°C (73°F) [RH = 74%]
Pressure (altimeter): 29.91 inches Hg (1013.0 mb)
Winds: from the SW (220 degrees) at 7 MPH (6 knots; 3.1 m/s)
Visibility: 6 or more miles (10+ km)
Ceiling: ceiling and visibility are OK
Clouds: unknown
Weather: no significant weather observed at this time

METAR text: DRRT 170500Z 20008KT CAVOK 29/20 Q1013
Conditions at: DRRT (TAHOUA , NE) observed 0500 UTC 17 June 2019
Temperature: 29.0°C (84°F)
Dewpoint: 20.0°C (68°F) [RH = 58%]
Pressure (altimeter): 29.91 inches Hg (1013.0 mb)
Winds: from the SSW (200 degrees) at 9 MPH (8 knots; 4.1 m/s)
Visibility: 6 or more miles (10+ km)
Ceiling: ceiling and visibility are OK
Clouds: unknown
Weather: no significant weather observed at this time

METAR text: DRRT 161800Z 22004KT 9999 FEW040 38/16 Q1010
Conditions at: DRRT (TAHOUA , NE) observed 1800 UTC 16 June 2019
Temperature: 38.0°C (100°F)
Dewpoint: 16.0°C (61°F) [RH = 27%]
Pressure (altimeter): 29.82 inches Hg (1010.0 mb)
Winds: from the SW (220 degrees) at 5 MPH (4 knots; 2.1 m/s)
Visibility: 6 or more miles (10+ km)
Ceiling: at least 12,000 feet AGL
Clouds: few clouds at 4000 feet AGL
Weather: no significant weather observed at this time

METAR text: DRRT 161700Z 10002KT 9999 FEW040 40/17 Q1010
Conditions at: DRRT (TAHOUA , NE) observed 1700 UTC 16 June 2019
Temperature: 40.0°C (104°F)
Dewpoint: 17.0°C (63°F) [RH = 26%]
Pressure (altimeter): 29.82 inches Hg (1010.0 mb)
Winds: from the E (100 degrees) at 2 MPH (2 knots; 1.0 m/s)
Visibility: 6 or more miles (10+ km)
Ceiling: at least 12,000 feet AGL
Clouds: few clouds at 4000 feet AGL
Weather: no significant weather observed at this time

METAR text: DRRT 161600Z 28004KT 9999 SCT040 40/19 Q1011
Conditions at: DRRT (TAHOUA , NE) observed 1600 UTC 16 June 2019
Temperature: 40.0°C (104°F)
Dewpoint: 19.0°C (66°F) [RH = 30%]
Pressure (altimeter): 29.85 inches Hg (1011.0 mb)
Winds: from the W (280 degrees) at 5 MPH (4 knots; 2.1 m/s)
Visibility: 6 or more miles (10+ km)
Ceiling: at least 12,000 feet AGL
Clouds: scattered clouds at 4000 feet AGL
Weather: no significant weather observed at this time

METAR text: DRRT 161500Z 34006KT 9999 FEW040 40/19 Q1011
Conditions at: DRRT (TAHOUA , NE) observed 1500 UTC 16 June 2019
Temperature: 40.0°C (104°F)
Dewpoint: 19.0°C (66°F) [RH = 30%]
Pressure (altimeter): 29.85 inches Hg (1011.0 mb)
Winds: from the NNW (340 degrees) at 7 MPH (6 knots; 3.1 m/s)
Visibility: 6 or more miles (10+ km)
Ceiling: at least 12,000 feet AGL
Clouds: few clouds at 4000 feet AGL
Weather: no significant weather observed at this time